Time;durP1;ratioP1;P1;durP2;ratioP2;P2;SDS_P1;SDS_P2;PMS_P1;PMS_P2;Temp;Humidity;BMP_temperature;BMP_pressure;BME280_temperature;BME280_humidity;BME280_pressure;Samples;Min_cycle;Max_cycle;Signal;HPM_P1;HPM_P2
2021/07/08 00:02:04;;;;;;;12.40;5.47;;;;;;;14.40;100.00;101273.47;5043025;28;20045;-69
2021/07/08 00:04:32;;;;;;;17.25;5.72;;;;;;;14.36;100.00;101274.84;5048577;28;20041;-69
2021/07/08 00:07:02;;;;;;;12.73;5.90;;;;;;;14.29;100.00;101280.09;5039259;28;20044;-70
2021/07/08 00:09:29;;;;;;;15.02;6.63;;;;;;;14.21;100.00;101275.59;5042211;28;20067;-69
2021/07/08 00:11:59;;;;;;;10.20;5.28;;;;;;;14.16;100.00;101275.31;5040273;28;20041;-70
2021/07/08 00:14:26;;;;;;;12.55;5.22;;;;;;;14.32;100.00;101276.19;5044491;28;20042;-70
2021/07/08 00:16:54;;;;;;;9.75;6.35;;;;;;;14.13;100.00;101281.00;5044266;28;20440;-69
2021/07/08 00:19:22;;;;;;;9.57;5.63;;;;;;;14.02;100.00;101284.94;5036427;28;20830;-70
2021/07/08 00:21:50;;;;;;;11.73;5.75;;;;;;;14.01;100.00;101280.56;5043666;28;20052;-69
2021/07/08 00:24:20;;;;;;;14.48;7.22;;;;;;;13.88;100.00;101281.13;5040821;28;20056;-69
2021/07/08 00:26:48;;;;;;;14.00;6.25;;;;;;;13.94;100.00;101279.59;5045064;28;20099;-70
2021/07/08 00:29:16;;;;;;;13.23;5.45;;;;;;;13.95;100.00;101286.63;5040578;28;20060;-69
2021/07/08 00:31:44;;;;;;;10.93;5.35;;;;;;;13.96;100.00;101290.97;5043978;28;20079;-69
2021/07/08 00:34:12;;;;;;;15.20;5.95;;;;;;;14.19;100.00;101285.69;5041838;28;20084;-69
2021/07/08 00:36:40;;;;;;;12.25;5.63;;;;;;;13.89;100.00;101287.31;5041315;28;20147;-69
2021/07/08 00:39:08;;;;;;;9.55;5.57;;;;;;;13.93;100.00;101288.63;5044110;28;20053;-69
2021/07/08 00:41:37;;;;;;;12.93;5.38;;;;;;;14.05;100.00;101295.31;5043587;28;20045;-69
2021/07/08 00:44:06;;;;;;;11.63;5.88;;;;;;;14.06;100.00;101291.63;5041075;28;20037;-69
2021/07/08 00:46:34;;;;;;;15.52;5.78;;;;;;;13.99;100.00;101297.84;5042605;28;20037;-69
2021/07/08 00:49:02;;;;;;;13.82;6.15;;;;;;;13.91;100.00;101296.88;5039782;28;20053;-69
2021/07/08 00:51:30;;;;;;;13.38;7.10;;;;;;;13.91;100.00;101302.25;5046323;28;20049;-69
2021/07/08 00:53:57;;;;;;;13.75;6.28;;;;;;;13.92;100.00;101305.75;5041232;28;20417;-69
2021/07/08 00:56:26;;;;;;;14.50;6.75;;;;;;;13.99;100.00;101303.22;5041300;28;20056;-69
2021/07/08 00:59:05;;;;;;;14.48;7.88;;;;;;;13.93;100.00;101315.50;5043089;28;20384;-69
2021/07/08 01:01:33;;;;;;;14.68;8.75;;;;;;;13.94;100.00;101309.13;5039823;28;20045;-69
2021/07/08 01:04:03;;;;;;;15.60;7.95;;;;;;;14.60;100.00;101312.31;5044521;28;20417;-69
2021/07/08 01:06:32;;;;;;;16.40;7.05;;;;;;;14.47;100.00;101312.06;5040239;28;20045;-69
2021/07/08 01:09:00;;;;;;;15.27;7.22;;;;;;;14.30;100.00;101308.63;5040629;28;20055;-69
2021/07/08 01:11:28;;;;;;;16.02;7.68;;;;;;;14.30;100.00;101303.25;5043681;28;20164;-69
2021/07/08 01:13:56;;;;;;;20.25;9.48;;;;;;;14.32;100.00;101311.13;5041085;28;20037;-69
2021/07/08 01:16:27;;;;;;;16.80;8.57;;;;;;;14.26;100.00;101313.50;5045788;28;20045;-69
2021/07/08 01:18:55;;;;;;;14.10;8.30;;;;;;;14.09;100.00;101301.16;5038040;28;20049;-69
2021/07/08 01:21:29;;;;;;;19.27;8.93;;;;;;;13.84;100.00;101305.81;5041972;28;20037;-69
2021/07/08 01:23:57;;;;;;;15.68;9.10;;;;;;;13.78;100.00;101299.28;5041263;28;20090;-69
2021/07/08 01:26:25;;;;;;;20.13;9.90;;;;;;;14.06;100.00;101294.31;5040214;28;20045;-69
2021/07/08 01:28:54;;;;;;;21.25;10.57;;;;;;;13.85;100.00;101307.44;5044415;28;20045;-69
2021/07/08 01:31:23;;;;;;;18.10;9.75;;;;;;;13.78;100.00;101297.41;5041700;28;20041;-69
2021/07/08 01:33:53;;;;;;;19.27;9.60;;;;;;;13.90;100.00;101297.88;5044382;28;20044;-69
2021/07/08 01:36:21;;;;;;;22.77;9.13;;;;;;;13.90;100.00;101300.56;5037345;28;20045;-69
2021/07/08 01:38:50;;;;;;;16.77;8.60;;;;;;;13.94;100.00;101303.75;5037623;28;20033;-70
2021/07/08 01:41:18;;;;;;;17.55;8.70;;;;;;;13.72;100.00;101302.63;5046181;28;20056;-69
2021/07/08 01:43:47;;;;;;;25.13;10.25;;;;;;;13.81;100.00;101298.94;5043774;28;20040;-69
2021/07/08 01:46:16;;;;;;;16.92;8.85;;;;;;;13.84;100.00;101300.44;5037154;28;20045;-69
2021/07/08 01:48:46;;;;;;;21.00;9.45;;;;;;;13.76;100.00;101302.13;5039955;28;20144;-69
2021/07/08 01:51:24;;;;;;;26.63;10.65;;;;;;;13.73;100.00;101301.63;5038911;28;20045;-69
2021/07/08 01:53:54;;;;;;;17.90;9.40;;;;;;;13.67;100.00;101305.00;5041554;28;20045;-69
2021/07/08 01:56:22;;;;;;;18.23;10.73;;;;;;;13.64;100.00;101305.31;5039545;28;20049;-69
2021/07/08 01:58:50;;;;;;;19.83;10.77;;;;;;;13.73;100.00;101302.44;5040958;28;20037;-69
2021/07/08 02:01:18;;;;;;;21.42;11.05;;;;;;;13.72;100.00;101302.63;5045156;28;20368;-69
2021/07/08 02:03:46;;;;;;;26.63;10.27;;;;;;;13.90;100.00;101305.09;5041904;28;20124;-69
2021/07/08 02:06:14;;;;;;;22.65;11.75;;;;;;;14.07;100.00;101300.50;5040647;28;20041;-69
2021/07/08 02:08:42;;;;;;;22.52;10.38;;;;;;;14.23;100.00;101302.28;5037575;28;20042;-70
2021/07/08 02:11:12;;;;;;;20.00;9.75;;;;;;;14.13;100.00;101302.47;5039748;28;20507;-69
2021/07/08 02:13:41;;;;;;;25.20;10.70;;;;;;;13.99;100.00;101304.06;5043204;28;20060;-69
2021/07/08 02:16:11;;;;;;;20.02;9.35;;;;;;;13.89;100.00;101293.53;5040497;28;20041;-69
2021/07/08 02:18:40;;;;;;;17.52;9.77;;;;;;;13.86;100.00;101307.28;5037960;28;20391;-69
2021/07/08 02:21:08;;;;;;;21.95;10.95;;;;;;;13.78;100.00;101310.84;5037998;28;20041;-69
2021/07/08 02:23:37;;;;;;;25.63;10.63;;;;;;;13.77;100.00;101311.00;5040887;28;20045;-69
2021/07/08 02:26:07;;;;;;;22.08;11.48;;;;;;;13.76;100.00;101306.66;5039829;28;20123;-69
2021/07/08 02:28:37;;;;;;;22.52;11.20;;;;;;;13.65;100.00;101307.88;5036283;28;20042;-69
2021/07/08 02:31:06;;;;;;;23.63;11.02;;;;;;;13.63;100.00;101303.69;5042888;28;20063;-69
2021/07/08 02:33:34;;;;;;;26.15;11.93;;;;;;;13.60;100.00;101304.84;5035451;28;20037;-70
2021/07/08 02:36:04;;;;;;;30.88;14.23;;;;;;;13.55;100.00;101309.88;5041816;28;20395;-69
2021/07/08 02:38:32;;;;;;;36.15;14.95;;;;;;;13.53;100.00;101311.91;5038976;28;20055;-69
2021/07/08 02:41:01;;;;;;;34.63;15.32;;;;;;;13.48;100.00;101307.06;5040906;28;20053;-70
2021/07/08 02:43:29;;;;;;;32.28;15.20;;;;;;;13.41;100.00;101303.34;5044780;28;20041;-69
2021/07/08 02:45:58;;;;;;;26.17;12.32;;;;;;;13.38;100.00;101307.25;5040685;28;20037;-70
2021/07/08 02:48:26;;;;;;;37.03;14.95;;;;;;;13.22;100.00;101302.69;5043872;28;20037;-70
2021/07/08 02:50:56;;;;;;;39.88;15.95;;;;;;;13.25;100.00;101298.81;5040894;28;20052;-69
2021/07/08 02:53:24;;;;;;;43.25;18.80;;;;;;;13.27;100.00;101304.88;5039334;28;20044;-70
2021/07/08 02:55:52;;;;;;;38.97;17.13;;;;;;;13.41;100.00;101309.59;5039043;28;20060;-70
2021/07/08 02:58:20;;;;;;;44.83;19.23;;;;;;;13.39;100.00;101314.25;5034952;28;20344;-70
2021/07/08 03:00:48;;;;;;;35.45;16.13;;;;;;;13.47;100.00;101320.63;5037619;28;20094;-70
2021/07/08 03:03:18;;;;;;;34.50;15.45;;;;;;;13.35;100.00;101312.91;5039952;28;20332;-70
2021/07/08 03:05:46;;;;;;;35.85;16.20;;;;;;;13.63;100.00;101314.41;5039821;28;20329;-71
2021/07/08 03:08:14;;;;;;;27.65;14.63;;;;;;;13.50;100.00;101317.63;5037511;28;20048;-70
2021/07/08 03:10:42;;;;;;;36.42;15.55;;;;;;;13.55;100.00;101320.63;5039095;28;20049;-70
2021/07/08 03:13:10;;;;;;;39.30;17.13;;;;;;;13.49;100.00;101327.50;5042979;28;20056;-70
2021/07/08 03:15:39;;;;;;;42.80;16.45;;;;;;;13.58;100.00;101320.25;5040471;28;20057;-70
2021/07/08 03:18:07;;;;;;;35.15;14.82;;;;;;;13.57;100.00;101321.28;5035826;28;20338;-70
2021/07/08 03:20:36;;;;;;;31.48;15.43;;;;;;;13.50;100.00;101317.63;5038694;28;20037;-70
2021/07/08 03:23:05;;;;;;;38.08;15.75;;;;;;;13.40;100.00;101313.25;5037873;28;20445;-70
2021/07/08 03:25:33;;;;;;;38.20;16.27;;;;;;;13.25;100.00;101304.19;5042501;28;20044;-70
2021/07/08 03:28:01;;;;;;;38.00;16.58;;;;;;;13.11;100.00;101299.50;5037943;28;20110;-70
2021/07/08 03:30:30;;;;;;;36.97;14.82;;;;;;;13.12;100.00;101296.66;5036212;28;20441;-70
2021/07/08 03:32:59;;;;;;;42.75;17.48;;;;;;;13.19;100.00;101311.06;5039614;28;20400;-70
2021/07/08 03:35:28;;;;;;;40.58;17.77;;;;;;;13.21;100.00;101308.22;5039951;28;20045;-69
2021/07/08 03:37:58;;;;;;;40.00;17.77;;;;;;;13.39;100.00;101324.16;5040958;28;20049;-69
2021/07/08 03:40:28;;;;;;;38.03;17.38;;;;;;;13.46;100.00;101329.69;5037511;28;20033;-69
2021/07/08 03:42:57;;;;;;;39.90;16.38;;;;;;;13.39;100.00;101330.34;5038106;28;20045;-70
2021/07/08 03:45:25;;;;;;;36.72;16.05;;;;;;;13.14;100.00;101332.22;5036319;28;20700;-69
2021/07/08 03:47:54;;;;;;;31.70;15.13;;;;;;;12.97;100.00;101334.03;5038392;28;20349;-70
2021/07/08 03:50:22;;;;;;;39.80;17.58;;;;;;;12.97;100.00;101330.50;5039758;28;20179;-70
2021/07/08 03:52:50;;;;;;;48.20;19.40;;;;;;;12.66;100.00;101337.34;5041234;28;20257;-70
2021/07/08 03:55:22;;;;;;;44.53;18.15;;;;;;;12.69;100.00;101337.00;5043014;28;20045;-69
2021/07/08 03:57:56;;;;;;;43.80;17.63;;;;;;;12.62;100.00;101322.59;5039944;28;20072;-69
2021/07/08 04:00:30;;;;;;;41.15;17.70;;;;;;;12.53;100.00;101328.91;5039289;28;20037;-70
2021/07/08 04:03:00;;;;;;;35.92;16.60;;;;;;;12.52;100.00;101328.09;5046423;28;20443;-70
2021/07/08 04:05:28;;;;;;;50.15;19.20;;;;;;;12.48;100.00;101328.59;5040021;28;20453;-70
2021/07/08 04:07:56;;;;;;;55.05;19.05;;;;;;;12.41;100.00;101325.72;5040180;28;20040;-70
2021/07/08 04:10:26;;;;;;;52.97;20.30;;;;;;;12.36;100.00;101326.22;5041508;28;20047;-70
2021/07/08 04:12:54;;;;;;;51.47;20.23;;;;;;;12.33;100.00;101326.53;5043239;28;20041;-69
2021/07/08 04:15:22;;;;;;;41.15;16.55;;;;;;;12.31;100.00;101330.38;5043581;28;20041;-70
2021/07/08 04:17:50;;;;;;;36.22;15.93;;;;;;;12.34;100.00;101333.56;5041182;28;20095;-70
2021/07/08 04:20:20;;;;;;;31.63;15.10;;;;;;;12.37;100.00;101333.22;5042256;28;20049;-70
2021/07/08 04:22:48;;;;;;;43.50;18.00;;;;;;;12.66;100.00;101331.97;5042788;28;20049;-69
2021/07/08 04:25:17;;;;;;;41.95;18.13;;;;;;;12.76;100.00;101334.50;5040819;28;20064;-70
2021/07/08 04:27:46;;;;;;;42.88;17.50;;;;;;;12.84;100.00;101331.84;5037017;28;20037;-70
2021/07/08 04:30:17;;;;;;;36.58;16.92;;;;;;;12.77;100.00;101329.97;5037077;28;20041;-69
2021/07/08 04:32:45;;;;;;;45.05;17.05;;;;;;;12.72;100.00;101327.81;5042379;28;20368;-69
2021/07/08 04:35:17;;;;;;;52.00;19.20;;;;;;;12.65;100.00;101337.50;5042201;28;20041;-69
2021/07/08 04:37:45;;;;;;;41.95;17.55;;;;;;;12.73;100.00;101324.94;5040530;28;20048;-69
2021/07/08 04:40:15;;;;;;;62.95;22.17;;;;;;;12.73;100.00;101319.59;5041542;28;20052;-69
2021/07/08 04:42:43;;;;;;;58.50;21.08;;;;;;;12.87;100.00;101326.16;5041387;28;20060;-69
2021/07/08 04:45:13;;;;;;;51.95;19.88;;;;;;;12.70;100.00;101329.78;5040595;28;20038;-69
2021/07/08 04:47:43;;;;;;;44.28;19.13;;;;;;;13.07;100.00;101334.72;5043096;28;20613;-69
2021/07/08 04:50:15;;;;;;;48.88;18.65;;;;;;;13.20;100.00;101338.75;5036853;28;20060;-69
2021/07/08 04:52:44;;;;;;;39.58;17.65;;;;;;;13.26;100.00;101335.38;5043117;28;20049;-68
2021/07/08 04:55:12;;;;;;;44.10;18.42;;;;;;;13.11;100.00;101343.25;5039486;28;20036;-68
2021/07/08 04:57:40;;;;;;;48.03;18.63;;;;;;;12.98;100.00;101348.28;5041363;28;20052;-68
2021/07/08 05:00:10;;;;;;;40.70;17.23;;;;;;;13.01;100.00;101342.56;5039209;28;20045;-68
2021/07/08 05:02:40;;;;;;;35.63;15.48;;;;;;;13.17;100.00;101345.28;5039104;28;20582;-68
2021/07/08 05:05:10;;;;;;;46.65;17.75;;;;;;;13.40;100.00;101348.13;5042626;28;20041;-68
2021/07/08 05:07:38;;;;;;;33.67;15.18;;;;;;;13.58;100.00;101355.16;5041294;28;20045;-68
2021/07/08 05:10:08;;;;;;;34.28;15.38;;;;;;;13.69;100.00;101353.97;5034809;28;20049;-70
2021/07/08 05:12:36;;;;;;;36.65;17.60;;;;;;;13.71;100.00;101350.13;5039714;28;20049;-69
2021/07/08 05:15:06;;;;;;;34.60;15.05;;;;;;;13.81;100.00;101351.75;5042459;28;20044;-68
2021/07/08 05:17:34;;;;;;;40.25;16.73;;;;;;;13.71;100.00;101354.66;5039404;28;20041;-68
2021/07/08 05:20:04;;;;;;;39.95;17.25;;;;;;;13.77;100.00;101359.34;5036354;28;20518;-68
2021/07/08 05:22:32;;;;;;;39.70;16.42;;;;;;;13.79;100.00;101357.31;5039904;28;20045;-69
2021/07/08 05:25:00;;;;;;;32.40;15.15;;;;;;;14.03;100.00;101363.63;5039361;28;20041;-70
2021/07/08 05:27:30;;;;;;;34.33;14.73;;;;;;;14.06;100.00;101364.13;5038205;28;20306;-70
2021/07/08 05:29:59;;;;;;;47.22;18.15;;;;;;;14.10;100.00;101368.16;5042518;28;20238;-69
2021/07/08 05:32:27;;;;;;;41.78;18.25;;;;;;;14.14;100.00;101368.63;5041276;28;20051;-69
2021/07/08 05:34:55;;;;;;;40.17;18.80;;;;;;;14.15;100.00;101377.50;5042176;28;20099;-70
2021/07/08 05:37:25;;;;;;;38.63;17.50;;;;;;;14.25;100.00;101373.63;5038684;28;20044;-69
2021/07/08 05:39:53;;;;;;;36.17;16.30;;;;;;;14.45;100.00;101376.72;5035848;28;20041;-69
2021/07/08 05:42:21;;;;;;;37.03;16.67;;;;;;;14.48;100.00;101383.59;5040695;28;20056;-69
2021/07/08 05:44:49;;;;;;;32.40;15.38;;;;;;;14.70;100.00;101389.22;5036309;28;20052;-69
2021/07/08 05:47:17;;;;;;;33.80;16.10;;;;;;;14.78;100.00;101392.69;5040070;28;20057;-70
2021/07/08 05:49:55;;;;;;;39.83;16.80;;;;;;;15.34;100.00;101399.75;5039124;28;20444;-70
2021/07/08 05:52:25;;;;;;;31.75;14.60;;;;;;;15.71;100.00;101390.00;5038173;28;20207;-69
2021/07/08 05:54:53;;;;;;;24.52;12.90;;;;;;;16.84;100.00;101396.09;5038416;28;20056;-69
2021/07/08 05:57:21;;;;;;;25.77;11.80;;;;;;;17.03;100.00;101400.03;5036447;28;20045;-69
2021/07/08 05:59:49;;;;;;;21.83;11.73;;;;;;;16.44;100.00;101400.16;5040682;28;20041;-70
2021/07/08 06:02:17;;;;;;;22.17;11.20;;;;;;;16.23;100.00;101414.38;5041804;28;20041;-69
2021/07/08 06:04:45;;;;;;;20.42;10.90;;;;;;;16.80;100.00;101408.28;5038171;28;20037;-69
2021/07/08 06:07:13;;;;;;;21.02;9.95;;;;;;;17.79;100.00;101405.88;5046407;28;20029;-68
2021/07/08 06:09:42;;;;;;;15.05;9.80;;;;;;;19.05;100.00;101410.28;5035941;28;20049;-68
2021/07/08 06:12:10;;;;;;;15.38;9.30;;;;;;;19.56;100.00;101404.31;5041632;28;20384;-68
2021/07/08 06:14:38;;;;;;;23.08;10.15;;;;;;;20.35;100.00;101406.28;5041513;28;20064;-70
2021/07/08 06:17:07;;;;;;;16.48;9.85;;;;;;;20.50;100.00;101411.41;5041848;28;20405;-70
2021/07/08 06:19:35;;;;;;;14.55;8.27;;;;;;;20.90;100.00;101412.09;5042709;28;20140;-70
2021/07/08 06:22:04;;;;;;;14.65;9.38;;;;;;;20.45;100.00;101414.78;5036152;28;20052;-70
2021/07/08 06:24:33;;;;;;;16.20;8.65;;;;;;;20.35;100.00;101415.22;5041560;28;20048;-69
2021/07/08 06:27:02;;;;;;;16.45;8.60;;;;;;;20.41;100.00;101416.25;5041540;28;20041;-70
2021/07/08 06:29:30;;;;;;;17.50;9.52;;;;;;;19.95;100.00;101426.19;5037940;28;20048;-70
2021/07/08 06:31:59;;;;;;;14.70;7.53;;;;;;;21.03;100.00;101419.34;5041839;28;20108;-70
2021/07/08 06:34:42;;;;;;;16.88;8.55;;;;;;;20.14;100.00;101413.63;5038817;28;20037;-70
2021/07/08 06:37:10;;;;;;;16.13;8.15;;;;;;;20.47;100.00;101423.56;5042009;28;20052;-70
2021/07/08 06:39:38;;;;;;;14.60;7.35;;;;;;;20.69;100.00;101424.09;5035994;28;20432;-70
2021/07/08 06:42:07;;;;;;;12.25;6.85;;;;;;;21.39;100.00;101417.00;5037231;28;20095;-70
2021/07/08 06:44:35;;;;;;;12.07;6.45;;;;;;;20.87;100.00;101428.84;5039701;28;20052;-68
2021/07/08 06:47:04;;;;;;;12.02;6.35;;;;;;;21.62;100.00;101428.13;5035158;28;20060;-68
2021/07/08 06:49:34;;;;;;;9.70;5.78;;;;;;;21.40;100.00;101429.53;5035823;28;20053;-68
2021/07/08 06:52:02;;;;;;;12.38;6.57;;;;;;;19.21;100.00;101420.72;5036285;28;20111;-68
2021/07/08 06:54:30;;;;;;;13.05;6.70;;;;;;;20.17;100.00;101436.78;5041425;28;20056;-68
2021/07/08 06:56:58;;;;;;;12.63;6.43;;;;;;;19.57;100.00;101426.81;5038790;28;20053;-68
2021/07/08 06:59:27;;;;;;;12.15;6.28;;;;;;;18.26;100.00;101435.94;5033779;28;20238;-68
2021/07/08 07:01:55;;;;;;;10.85;6.32;;;;;;;20.37;100.00;101429.44;5038415;28;20046;-68
2021/07/08 07:04:24;;;;;;;13.40;6.20;;;;;;;19.51;100.00;101428.47;5039164;28;20046;-69
2021/07/08 07:06:52;;;;;;;10.48;6.05;;;;;;;20.91;100.00;101416.50;5040455;28;20418;-68
2021/07/08 07:09:20;;;;;;;15.73;6.60;;;;;;;20.44;100.00;101423.97;5037645;28;20437;-68
2021/07/08 07:11:48;;;;;;;13.88;6.13;;;;;;;21.12;100.00;101428.03;5035102;28;20048;-69
2021/07/08 07:14:16;;;;;;;9.02;6.05;;;;;;;21.67;100.00;101420.16;5039050;28;20674;-69
2021/07/08 07:16:45;;;;;;;11.73;5.78;;;;;;;22.44;100.00;101424.41;5038982;28;20056;-69
2021/07/08 07:19:13;;;;;;;13.13;5.40;;;;;;;22.90;100.00;101435.75;5038468;28;21240;-69
2021/07/08 07:21:41;;;;;;;13.65;5.38;;;;;;;23.86;100.00;101424.00;5040460;28;20057;-69
2021/07/08 07:24:09;;;;;;;8.68;5.05;;;;;;;24.15;100.00;101429.59;5037901;28;20048;-69
2021/07/08 07:26:37;;;;;;;10.98;5.35;;;;;;;23.82;100.00;101433.75;5040262;28;20037;-69
2021/07/08 07:29:05;;;;;;;8.82;5.30;;;;;;;23.38;100.00;101423.97;5035915;28;20496;-70
2021/07/08 07:31:33;;;;;;;10.52;5.45;;;;;;;22.74;100.00;101423.63;5037476;28;20041;-69
2021/07/08 07:34:03;;;;;;;10.30;5.40;;;;;;;21.39;100.00;101422.44;5038157;28;20053;-69
2021/07/08 07:36:31;;;;;;;10.95;6.22;;;;;;;19.98;100.00;101428.47;5043115;28;20032;-69
2021/07/08 07:38:58;;;;;;;12.77;5.97;;;;;;;20.55;100.00;101419.75;5039890;28;20045;-68
2021/07/08 07:41:26;;;;;;;10.95;5.03;;;;;;;21.93;100.00;101418.25;5044888;28;20044;-69
2021/07/08 07:43:54;;;;;;;10.32;4.40;;;;;;;23.45;100.00;101415.69;5042185;28;20049;-69
2021/07/08 07:46:23;;;;;;;9.40;4.63;;;;;;;23.50;100.00;101412.25;5046540;28;20041;-69
2021/07/08 07:48:51;;;;;;;7.82;4.53;;;;;;;23.50;100.00;101409.53;5042140;28;20129;-69
2021/07/08 07:51:23;;;;;;;7.80;3.83;;;;;;;23.25;100.00;101412.44;5039557;28;20495;-71
2021/07/08 07:53:51;;;;;;;14.40;4.65;;;;;;;23.41;100.00;101410.94;5040050;28;20045;-69
2021/07/08 07:56:19;;;;;;;9.93;4.55;;;;;;;21.69;100.00;101406.34;5043769;28;20042;-69
2021/07/08 07:58:47;;;;;;;11.65;4.93;;;;;;;23.00;100.00;101408.78;5039055;28;20421;-69
2021/07/08 08:01:15;;;;;;;6.75;4.05;;;;;;;23.92;100.00;101412.19;5043731;28;20321;-69
2021/07/08 08:03:43;;;;;;;7.45;4.70;;;;;;;24.10;100.00;101403.03;5048783;28;20056;-69
2021/07/08 08:08:58;;;;;;;8.13;4.45;;;;;;;25.25;100.00;101388.59;5037822;28;20445;-69
2021/07/08 08:11:26;;;;;;;8.88;4.53;;;;;;;25.40;100.00;101388.88;5042940;28;20071;-69
2021/07/08 08:13:53;;;;;;;8.07;6.38;;;;;;;23.69;100.00;101392.00;5040656;28;20049;-69
2021/07/08 08:16:22;;;;;;;10.40;5.32;;;;;;;23.43;100.00;101392.44;5042783;28;20085;-69
2021/07/08 08:18:50;;;;;;;8.27;4.90;;;;;;;24.81;100.00;101388.34;5038362;28;20045;-69
2021/07/08 08:21:18;;;;;;;10.10;4.40;;;;;;;24.32;100.00;101389.56;5042208;28;20037;-69
2021/07/08 08:23:47;;;;;;;11.02;5.38;;;;;;;25.40;100.00;101390.75;5043767;28;20429;-70
2021/07/08 08:26:16;;;;;;;8.88;5.20;;;;;;;25.02;100.00;101398.59;5038551;28;20068;-70
2021/07/08 08:28:44;;;;;;;7.22;4.25;;;;;;;25.65;100.00;101401.28;5040077;28;20052;-69
2021/07/08 08:31:12;;;;;;;9.32;5.25;;;;;;;25.14;100.00;101403.16;5043843;28;20110;-70
2021/07/08 08:33:40;;;;;;;5.95;4.38;;;;;;;25.48;100.00;101409.50;5037094;28;20048;-70
2021/07/08 08:36:08;;;;;;;10.75;4.75;;;;;;;25.93;100.00;101407.72;5044633;28;20049;-70
2021/07/08 08:38:36;;;;;;;8.45;4.68;;;;;;;25.43;100.00;101410.25;5037263;28;20041;-70
2021/07/08 08:41:04;;;;;;;7.97;4.47;;;;;;;24.49;100.00;101402.47;5041697;28;20041;-70
2021/07/08 08:43:34;;;;;;;9.95;5.85;;;;;;;23.60;100.00;101398.03;5038649;28;20045;-69
2021/07/08 08:46:02;;;;;;;11.60;6.35;;;;;;;22.16;100.00;101400.44;5043192;28;20425;-69
2021/07/08 08:48:29;;;;;;;9.52;6.53;;;;;;;22.44;100.00;101408.09;5039673;28;20432;-70
2021/07/08 08:50:57;;;;;;;10.02;6.75;;;;;;;22.02;100.00;101405.19;5043021;28;20037;-69
2021/07/08 08:53:25;;;;;;;11.75;6.03;;;;;;;20.65;100.00;101414.69;5046674;28;20045;-71
2021/07/08 08:55:53;;;;;;;12.13;6.63;;;;;;;21.71;100.00;101414.28;5041972;28;20090;-70
2021/07/08 08:58:23;;;;;;;10.38;5.57;;;;;;;22.90;100.00;101411.25;5041206;28;20041;-70
2021/07/08 09:00:56;;;;;;;10.00;6.72;;;;;;;22.20;100.00;101412.53;5038316;28;20106;-69
2021/07/08 09:03:26;;;;;;;12.48;5.47;;;;;;;25.46;100.00;101413.53;5041113;28;20041;-69
2021/07/08 09:06:00;;;;;;;10.73;5.57;;;;;;;24.24;100.00;101414.50;5041728;28;20055;-69
2021/07/08 09:08:28;;;;;;;10.02;4.75;;;;;;;26.69;100.00;101414.44;5038707;28;20333;-69
2021/07/08 09:11:12;;;;;;;9.20;5.53;;;;;;;25.29;100.00;101424.44;5042052;28;20518;-70
2021/07/08 09:13:51;;;;;;;8.32;5.43;;;;;;;22.47;100.00;101423.09;5042793;28;20337;-70
2021/07/08 09:16:22;;;;;;;7.93;5.90;;;;;;;21.25;100.00;101422.53;5040366;28;20060;-70
2021/07/08 09:18:59;;;;;;;10.30;6.03;;;;;;;20.82;100.00;101434.06;5041673;28;20045;-70
2021/07/08 09:21:27;;;;;;;9.40;5.47;;;;;;;20.75;100.00;101433.25;5041220;28;20147;-71
2021/07/08 09:24:14;;;;;;;12.82;5.97;;;;;;;19.97;100.00;101436.81;5041585;28;20049;-70
2021/07/08 09:26:43;;;;;;;8.65;5.05;;;;;;;20.72;100.00;101444.56;5039145;28;20188;-70
2021/07/08 09:29:15;;;;;;;8.40;4.95;;;;;;;20.62;100.00;101445.81;5037604;28;20064;-70
2021/07/08 09:31:49;;;;;;;8.68;5.22;;;;;;;20.66;100.00;101432.66;5042152;28;20114;-70
2021/07/08 09:34:19;;;;;;;11.13;5.50;;;;;;;20.24;100.00;101433.03;5041057;28;20341;-70
2021/07/08 09:36:49;;;;;;;11.50;5.18;;;;;;;20.89;100.00;101437.56;5040910;28;20041;-69
2021/07/08 09:39:17;;;;;;;9.77;6.18;;;;;;;21.30;100.00;101449.03;5037220;28;20426;-69
2021/07/08 09:41:50;;;;;;;11.55;6.00;;;;;;;21.82;100.00;101443.44;5039791;28;20048;-69
2021/07/08 09:44:26;;;;;;;13.40;5.32;;;;;;;21.25;100.00;101438.84;5042966;28;20136;-70
2021/07/08 09:46:57;;;;;;;10.13;5.22;;;;;;;21.53;100.00;101445.75;5038125;28;20052;-70
2021/07/08 09:49:27;;;;;;;8.68;5.28;;;;;;;21.45;100.00;101454.16;5034067;28;20040;-69
2021/07/08 09:51:55;;;;;;;8.85;6.45;;;;;;;21.29;100.00;101450.94;5042769;28;20441;-69
2021/07/08 09:54:50;;;;;;;12.60;6.82;;;;;;;20.74;100.00;101459.59;5038147;28;20049;-70
2021/07/08 09:57:48;;;;;;;11.70;6.63;;;;;;;20.27;100.00;101470.56;5041469;28;20041;-70
2021/07/08 10:00:32;;;;;;;8.07;5.47;;;;;;;20.90;100.00;101468.28;4991755;28;20052;-69
2021/07/08 10:03:02;;;;;;;10.30;4.95;;;;;;;21.76;100.00;101471.50;5041445;28;20053;-69
2021/07/08 10:05:34;;;;;;;8.90;6.15;;;;;;;21.94;100.00;101463.38;5038602;28;20045;-70
2021/07/08 10:08:02;;;;;;;10.70;7.15;;;;;;;23.65;100.00;101455.41;5041181;28;20115;-69
2021/07/08 10:10:31;;;;;;;9.07;6.38;;;;;;;22.72;100.00;101446.69;5037017;28;20076;-69
2021/07/08 10:13:04;;;;;;;10.65;6.15;;;;;;;22.82;100.00;101452.41;5038953;28;20091;-69
2021/07/08 10:15:35;;;;;;;12.38;6.47;;;;;;;21.78;100.00;101453.91;5037277;28;20049;-69
2021/07/08 10:18:05;;;;;;;12.50;7.68;;;;;;;21.18;100.00;101454.34;5040105;28;20034;-69
2021/07/08 10:20:33;;;;;;;12.05;7.28;;;;;;;21.68;100.00;101450.88;5035505;28;20044;-70
2021/07/08 10:23:01;;;;;;;8.07;6.40;;;;;;;22.60;100.00;101452.91;5037276;28;20481;-70
2021/07/08 10:25:29;;;;;;;10.20;6.30;;;;;;;22.27;100.00;101448.63;5037291;28;20038;-69
2021/07/08 10:27:58;;;;;;;10.85;5.85;;;;;;;22.30;100.00;101448.19;5041378;28;20061;-69
2021/07/08 10:30:28;;;;;;;10.65;6.00;;;;;;;23.77;100.00;101452.69;5037217;28;20049;-69
2021/07/08 10:32:57;;;;;;;11.13;6.20;;;;;;;24.38;100.00;101459.56;5039842;28;20041;-69
2021/07/08 10:35:43;;;;;;;8.05;5.53;;;;;;;24.90;100.00;101455.16;5035902;28;20087;-69
2021/07/08 10:38:34;;;;;;;10.65;6.55;;;;;;;24.90;100.00;101458.72;5041059;28;20036;-69
2021/07/08 10:41:24;;;;;;;8.23;6.72;;;;;;;23.17;100.00;101462.66;5042904;28;20037;-70
2021/07/08 10:43:51;;;;;;;9.10;5.32;;;;;;;23.69;100.00;101462.88;5042023;28;20380;-70
2021/07/08 10:46:39;;;;;;;8.63;5.25;;;;;;;23.41;100.00;101465.44;5039135;28;20048;-69
2021/07/08 10:49:11;;;;;;;8.35;5.57;;;;;;;23.88;100.00;101460.91;5041511;28;20067;-70
2021/07/08 10:51:43;;;;;;;9.43;4.72;;;;;;;23.52;100.00;101461.91;5037819;28;20045;-70
2021/07/08 10:54:26;;;;;;;10.95;6.72;;;;;;;22.89;100.00;101458.59;5042475;28;20045;-70
2021/07/08 10:56:55;;;;;;;10.48;5.60;;;;;;;23.60;100.00;101461.56;5038854;28;20053;-70
2021/07/08 10:59:23;;;;;;;11.07;6.13;;;;;;;23.94;100.00;101452.84;5038230;28;20038;-70
2021/07/08 11:01:52;;;;;;;11.75;8.02;;;;;;;24.04;100.00;101448.47;5055388;28;20045;-70
2021/07/08 11:04:46;;;;;;;13.23;8.25;;;;;;;26.28;100.00;101447.59;5040145;28;20049;-70
2021/07/08 11:07:20;;;;;;;12.38;7.85;;;;;;;25.53;100.00;101441.53;5037732;28;20049;-70
2021/07/08 11:09:55;;;;;;;13.23;8.15;;;;;;;24.39;100.00;101444.03;5036751;28;20041;-70
2021/07/08 11:12:31;;;;;;;14.85;8.38;;;;;;;24.97;100.00;101452.31;5036735;28;20090;-70
2021/07/08 11:14:59;;;;;;;13.75;7.68;;;;;;;26.64;100.00;101437.91;5037182;28;20045;-70
2021/07/08 11:17:29;;;;;;;8.52;6.72;;;;;;;25.78;100.00;101439.22;5040825;28;20445;-70
2021/07/08 11:19:58;;;;;;;13.43;7.50;;;;;;;27.28;100.00;101428.19;5034533;28;20124;-70
2021/07/08 11:22:37;;;;;;;10.80;7.82;;;;;;;24.71;100.00;101436.25;5041293;28;20040;-70